createdAt,value
2018-04-01T00:00:57.536Z,16.23
2018-04-01T00:03:00.197Z,16.42
2018-04-01T00:05:02.852Z,15.50
2018-04-01T00:07:05.507Z,14.52
2018-04-01T00:09:08.177Z,13.98
2018-04-01T00:11:10.839Z,13.00
2018-04-01T00:13:13.505Z,14.68
2018-04-01T00:15:16.169Z,12.85
2018-04-01T00:17:18.857Z,12.85
2018-04-01T00:19:21.531Z,14.87
2018-04-01T00:21:24.227Z,13.27
2018-04-01T00:23:27.063Z,14.30
2018-04-01T00:25:29.717Z,13.93
2018-04-01T00:27:32.375Z,14.68
2018-04-01T00:29:35.040Z,14.57
2018-04-01T00:31:37.693Z,15.55
2018-04-01T00:33:40.360Z,47.00
2018-04-01T00:35:43.015Z,53.83
2018-04-01T00:37:45.683Z,100.43
2018-04-01T00:39:48.336Z,28.30
2018-04-01T00:41:50.992Z,17.73
2018-04-01T00:43:53.669Z,15.45
2018-04-01T00:45:56.323Z,15.07
2018-04-01T00:47:59.006Z,14.23
2018-04-01T00:50:01.685Z,14.15
2018-04-01T00:52:04.352Z,14.75
2018-04-01T00:54:07.027Z,15.20
2018-04-01T00:56:09.718Z,15.18
2018-04-01T00:58:12.473Z,15.43
2018-04-01T01:00:15.124Z,15.05
2018-04-01T01:02:17.788Z,14.98
2018-04-01T01:04:20.444Z,16.15
2018-04-01T01:06:23.091Z,14.40
2018-04-01T01:08:25.768Z,14.87
2018-04-01T01:10:28.435Z,17.25
2018-04-01T01:12:31.087Z,15.27
2018-04-01T01:14:33.744Z,16.10
2018-04-01T01:16:36.417Z,15.07
2018-04-01T01:18:39.083Z,19.08
2018-04-01T01:20:41.750Z,19.05
2018-04-01T01:22:44.445Z,17.33
2018-04-01T01:24:47.120Z,19.27
2018-04-01T01:26:49.780Z,18.62
2018-04-01T01:28:52.444Z,17.87
2018-04-01T01:30:55.101Z,16.30
2018-04-01T01:32:57.805Z,20.35
2018-04-01T01:35:00.456Z,16.25
2018-04-01T01:37:03.130Z,20.35
2018-04-01T01:39:05.930Z,18.52
2018-04-01T01:41:08.583Z,18.15
2018-04-01T01:43:11.235Z,19.55
2018-04-01T01:45:13.991Z,21.25
2018-04-01T01:47:16.664Z,20.30
2018-04-01T01:49:19.332Z,20.25
2018-04-01T01:51:22.000Z,20.70
2018-04-01T01:53:24.665Z,20.95
2018-04-01T01:55:27.319Z,18.52
2018-04-01T01:57:29.991Z,21.10
2018-04-01T01:59:32.658Z,21.50
2018-04-01T02:01:35.336Z,20.55
2018-04-01T02:03:38.020Z,18.42
2018-04-01T02:05:40.703Z,21.25
2018-04-01T02:07:43.363Z,20.10
2018-04-01T02:09:46.037Z,25.73
2018-04-01T02:11:48.687Z,21.83
2018-04-01T02:13:51.353Z,24.37
2018-04-01T02:15:54.020Z,24.70
2018-04-01T02:17:56.685Z,22.30
2018-04-01T02:19:59.377Z,23.10
2018-04-01T02:22:02.041Z,25.02
2018-04-01T02:24:04.716Z,25.55
2018-04-01T02:26:07.532Z,26.52
2018-04-01T02:28:10.193Z,25.33
2018-04-01T02:30:12.859Z,21.73
2018-04-01T02:32:15.628Z,22.85
2018-04-01T02:34:18.279Z,22.30
2018-04-01T02:36:20.937Z,26.62
2018-04-01T02:38:23.605Z,23.33
2018-04-01T02:40:26.272Z,22.23
2018-04-01T02:42:28.968Z,22.25
2018-04-01T02:44:31.636Z,22.25
2018-04-01T02:46:34.307Z,25.00
2018-04-01T02:48:36.969Z,24.02
2018-04-01T02:50:39.799Z,24.60
2018-04-01T02:52:42.454Z,21.25
2018-04-01T02:54:45.128Z,21.48
2018-04-01T02:56:47.941Z,22.20
2018-04-01T02:58:50.587Z,23.02
2018-04-01T03:00:53.240Z,20.92
2018-04-01T03:02:55.908Z,20.30
2018-04-01T03:04:58.565Z,20.85
2018-04-01T03:07:01.572Z,21.90
2018-04-01T03:09:04.231Z,120.20
2018-04-01T03:11:07.024Z,94.53
2018-04-01T03:13:09.653Z,38.83
2018-04-01T03:15:12.361Z,32.50
2018-04-01T03:17:15.028Z,25.15
2018-04-01T03:19:17.683Z,27.27
2018-04-01T03:21:20.337Z,20.73
2018-04-01T03:23:23.278Z,23.00
2018-04-01T03:25:25.943Z,22.75
2018-04-01T03:27:28.587Z,23.38
2018-04-01T03:29:31.267Z,18.23
2018-04-01T03:31:33.921Z,23.17
2018-04-01T03:33:36.588Z,21.23
2018-04-01T03:35:39.273Z,21.87
2018-04-01T03:37:41.937Z,23.33
2018-04-01T03:39:44.583Z,22.92
2018-04-01T03:41:47.243Z,20.88
2018-04-01T03:43:49.913Z,23.02
2018-04-01T03:45:52.558Z,23.60
2018-04-01T03:47:55.204Z,23.38
2018-04-01T03:49:57.893Z,19.42
2018-04-01T03:52:00.563Z,22.48
2018-04-01T03:54:03.210Z,20.98
2018-04-01T03:56:05.920Z,22.83
2018-04-01T03:58:08.585Z,23.98
2018-04-01T04:00:11.234Z,21.10
2018-04-01T04:02:13.920Z,22.27
2018-04-01T04:04:16.567Z,21.05
2018-04-01T04:06:19.244Z,18.45
2018-04-01T04:08:21.928Z,24.50
2018-04-01T04:10:24.575Z,22.70
2018-04-01T04:12:27.235Z,27.35
2018-04-01T04:14:30.060Z,23.60
2018-04-01T04:16:32.709Z,21.45
2018-04-01T04:18:35.356Z,25.15
2018-04-01T04:20:38.011Z,23.95
2018-04-01T04:22:40.665Z,22.70
2018-04-01T04:24:43.335Z,20.77
2018-04-01T04:26:45.993Z,20.25
2018-04-01T04:28:48.651Z,23.15
2018-04-01T04:30:51.318Z,21.48
2018-04-01T04:32:53.974Z,22.62
2018-04-01T04:34:56.964Z,20.48
2018-04-01T04:36:59.611Z,24.50
2018-04-01T04:39:02.279Z,19.80
2018-04-01T04:41:04.934Z,21.42
2018-04-01T04:43:07.623Z,21.40
2018-04-01T04:45:10.275Z,17.12
2018-04-01T04:47:12.946Z,19.83
2018-04-01T04:49:15.595Z,19.08
2018-04-01T04:51:18.255Z,19.55
2018-04-01T04:53:20.932Z,20.23
2018-04-01T04:55:23.612Z,16.50
2018-04-01T04:57:26.271Z,17.35
2018-04-01T04:59:29.222Z,20.55
2018-04-01T05:01:31.900Z,17.95
2018-04-01T05:03:34.547Z,20.80
2018-04-01T05:05:37.200Z,20.37
2018-04-01T05:07:40.269Z,19.55
2018-04-01T05:09:42.992Z,18.55
2018-04-01T05:11:45.663Z,18.40
2018-04-01T05:13:48.312Z,19.62
2018-04-01T05:15:50.978Z,16.75
2018-04-01T05:17:54.581Z,22.05
2018-04-01T05:19:57.890Z,17.73
2018-04-01T05:22:00.827Z,19.25
2018-04-01T05:24:03.741Z,21.42
2018-04-01T05:26:06.407Z,18.17
2018-04-01T05:28:09.075Z,17.48
2018-04-01T05:30:11.727Z,19.62
2018-04-01T05:32:14.404Z,16.15
2018-04-01T05:34:17.087Z,16.95
2018-04-01T05:36:19.747Z,20.00
2018-04-01T05:38:22.412Z,17.25
2018-04-01T05:40:25.077Z,17.10
2018-04-01T05:42:27.732Z,18.58
2018-04-01T05:44:30.404Z,17.55
2018-04-01T05:46:33.056Z,16.62
2018-04-01T05:48:35.718Z,18.45
2018-04-01T05:50:38.708Z,14.30
2018-04-01T05:52:41.375Z,14.45
2018-04-01T05:54:44.052Z,15.55
2018-04-01T05:56:46.712Z,17.45
2018-04-01T05:58:49.379Z,16.55
2018-04-01T06:00:52.051Z,14.63
2018-04-01T06:02:54.700Z,14.40
2018-04-01T06:04:57.357Z,15.40
2018-04-01T06:07:00.309Z,14.95
2018-04-01T06:09:02.986Z,17.65
2018-04-01T06:11:05.644Z,16.83
2018-04-01T06:13:08.314Z,17.23
2018-04-01T06:15:11.311Z,15.60
2018-04-01T06:17:13.959Z,12.37
2018-04-01T06:19:16.601Z,15.23
2018-04-01T06:21:19.291Z,16.75
2018-04-01T06:23:21.943Z,15.80
2018-04-01T06:25:24.595Z,12.93
2018-04-01T06:27:27.360Z,14.82
2018-04-01T06:29:30.036Z,13.23
2018-04-01T06:31:32.695Z,16.42
2018-04-01T06:33:35.367Z,15.93
2018-04-01T06:35:38.194Z,16.62
2018-04-01T06:37:40.863Z,16.67
2018-04-01T06:39:43.534Z,15.20
2018-04-01T06:41:46.478Z,13.90
2018-04-01T06:43:49.127Z,15.18
2018-04-01T06:45:51.775Z,13.62
2018-04-01T06:47:55.590Z,15.40
2018-04-01T06:49:58.251Z,15.48
2018-04-01T06:52:01.206Z,31.42
2018-04-01T06:54:03.871Z,47.35
2018-04-01T06:56:06.525Z,30.55
2018-04-01T06:58:10.201Z,17.23
2018-04-01T07:00:14.063Z,18.25
2018-04-01T07:02:17.476Z,14.50
2018-04-01T07:04:20.137Z,16.27
2018-04-01T07:06:27.927Z,14.40
2018-04-01T07:08:30.621Z,12.98
2018-04-01T07:10:33.389Z,103.65
2018-04-01T07:12:36.453Z,110.70
2018-04-01T07:14:39.119Z,87.65
2018-04-01T07:16:41.784Z,29.35
2018-04-01T07:18:44.447Z,16.58
2018-04-01T07:20:47.117Z,13.65
2018-04-01T07:22:49.782Z,12.98
2018-04-01T07:24:52.479Z,11.93
2018-04-01T07:26:55.224Z,11.32
2018-04-01T07:28:57.905Z,12.43
2018-04-01T07:31:00.563Z,12.80
2018-04-01T07:33:03.249Z,13.45
2018-04-01T07:35:05.891Z,12.95
2018-04-01T07:37:08.560Z,15.18
2018-04-01T07:39:11.207Z,12.25
2018-04-01T07:41:13.859Z,13.48
2018-04-01T07:43:16.529Z,12.55
2018-04-01T07:45:19.934Z,13.65
2018-04-01T07:47:22.878Z,18.30
2018-04-01T07:49:25.554Z,21.30
2018-04-01T07:51:28.238Z,18.05
2018-04-01T07:53:30.916Z,20.10
2018-04-01T07:55:33.587Z,13.35
2018-04-01T07:57:36.287Z,13.60
2018-04-01T07:59:38.963Z,14.35
2018-04-01T08:01:43.763Z,12.35
2018-04-01T08:03:46.427Z,14.98
2018-04-01T08:05:49.079Z,11.45
2018-04-01T08:07:51.762Z,13.07
2018-04-01T08:09:54.428Z,10.55
2018-04-01T08:11:57.088Z,12.95
2018-04-01T08:13:59.768Z,10.65
2018-04-01T08:16:02.459Z,12.85
2018-04-01T08:18:05.118Z,29.70
2018-04-01T08:20:07.811Z,28.58
2018-04-01T08:22:10.591Z,25.25
2018-04-01T08:24:13.264Z,11.38
2018-04-01T08:26:15.987Z,9.75
2018-04-01T08:28:18.979Z,13.23
2018-04-01T08:30:30.619Z,11.60
2018-04-01T08:32:33.454Z,11.57
2018-04-01T08:34:36.165Z,10.57
2018-04-01T08:36:38.988Z,11.15
2018-04-01T08:38:42.032Z,11.32
2018-04-01T08:40:44.732Z,11.85
2018-04-01T08:42:47.477Z,18.52
2018-04-01T08:44:51.618Z,24.98
2018-04-01T08:46:54.968Z,16.40
2018-04-01T08:48:57.644Z,10.13
2018-04-01T08:51:00.300Z,11.43
2018-04-01T08:53:02.955Z,9.75
2018-04-01T08:55:05.614Z,10.30
2018-04-01T08:57:08.298Z,10.40
2018-04-01T08:59:10.966Z,9.20
2018-04-01T09:01:15.830Z,8.48
2018-04-01T09:03:18.508Z,8.95
2018-04-01T09:05:21.199Z,9.15
2018-04-01T09:07:24.107Z,9.80
2018-04-01T09:09:26.947Z,9.10
2018-04-01T09:11:29.659Z,6.70
2018-04-01T09:13:32.503Z,7.57
2018-04-01T09:15:35.162Z,6.43
2018-04-01T09:17:38.069Z,6.40
2018-04-01T09:19:40.731Z,7.75
2018-04-01T09:21:43.403Z,7.03
2018-04-01T09:23:46.081Z,8.00
2018-04-01T09:25:48.743Z,7.18
2018-04-01T09:27:51.395Z,7.53
2018-04-01T09:29:54.046Z,8.15
2018-04-01T09:31:56.875Z,8.85
2018-04-01T09:33:59.543Z,18.30
2018-04-01T09:36:02.219Z,29.15
2018-04-01T09:38:04.879Z,52.40
2018-04-01T09:40:07.533Z,24.60
2018-04-01T09:42:10.273Z,12.40
2018-04-01T09:44:12.934Z,8.50
2018-04-01T09:46:15.589Z,8.90
2018-04-01T09:48:18.250Z,9.45
2018-04-01T09:50:21.013Z,9.18
2018-04-01T09:52:23.668Z,9.80
2018-04-01T09:54:26.326Z,7.93
2018-04-01T09:56:29.022Z,8.00
2018-04-01T09:58:31.943Z,8.20
2018-04-01T10:00:38.623Z,12.25
2018-04-01T10:02:41.507Z,15.20
2018-04-01T10:04:44.227Z,30.17
2018-04-01T10:06:46.942Z,12.85
2018-04-01T10:08:49.693Z,8.88
2018-04-01T10:10:52.415Z,8.25
2018-04-01T10:12:55.132Z,7.87
2018-04-01T10:14:58.215Z,6.62
2018-04-01T10:17:00.929Z,6.62
2018-04-01T10:19:03.637Z,7.35
2018-04-01T10:21:06.382Z,7.53
2018-04-01T10:23:09.094Z,6.32
2018-04-01T10:25:11.837Z,7.05
2018-04-01T10:27:14.851Z,6.35
2018-04-01T10:29:17.570Z,6.20
2018-04-01T10:31:20.295Z,6.22
2018-04-01T10:33:23.353Z,6.85
2018-04-01T10:35:26.129Z,6.15
2018-04-01T10:37:28.857Z,7.10
2018-04-01T10:39:31.722Z,7.10
2018-04-01T10:41:34.463Z,7.25
2018-04-01T10:43:37.171Z,6.60
2018-04-01T10:45:39.893Z,6.35
2018-04-01T10:47:42.616Z,7.00
2018-04-01T10:49:45.348Z,6.50
2018-04-01T10:51:48.059Z,6.70
2018-04-01T10:53:55.688Z,6.80
2018-04-01T10:55:58.786Z,7.57
2018-04-01T10:58:01.437Z,7.72
2018-04-01T11:00:04.377Z,8.20
2018-04-01T11:02:07.032Z,8.82
2018-04-01T11:04:09.681Z,8.82
2018-04-01T11:06:12.620Z,9.60
2018-04-01T11:08:15.301Z,9.88
2018-04-01T11:10:17.954Z,9.23
2018-04-01T11:12:20.595Z,9.90
2018-04-01T11:14:23.248Z,10.35
2018-04-01T11:16:26.281Z,8.95
2018-04-01T11:18:28.955Z,10.25
2018-04-01T11:20:31.599Z,10.57
2018-04-01T11:22:34.529Z,11.00
2018-04-01T11:24:37.219Z,9.57
2018-04-01T11:26:39.878Z,9.10
2018-04-01T11:28:42.559Z,9.10
2018-04-01T11:30:45.218Z,10.05
2018-04-01T11:32:47.880Z,12.13
2018-04-01T11:34:50.553Z,7.07
2018-04-01T11:36:53.206Z,10.13
2018-04-01T11:38:55.859Z,8.80
2018-04-01T11:40:58.519Z,8.60
2018-04-01T11:43:01.174Z,9.07
2018-04-01T11:45:03.828Z,9.60
2018-04-01T11:47:06.491Z,10.43
2018-04-01T11:49:09.154Z,11.40
2018-04-01T11:51:11.824Z,11.73
2018-04-01T11:53:15.508Z,11.35
2018-04-01T11:55:18.159Z,12.07
2018-04-01T11:57:21.130Z,11.60
2018-04-01T11:59:23.799Z,10.48
2018-04-01T12:01:26.524Z,11.73
2018-04-01T12:03:29.171Z,13.48
2018-04-01T12:05:31.856Z,12.80
2018-04-01T12:07:34.811Z,12.85
2018-04-01T12:09:37.486Z,12.30
2018-04-01T12:11:40.383Z,52.88
2018-04-01T12:13:43.072Z,49.50
2018-04-01T12:15:45.744Z,18.25
2018-04-01T12:17:48.462Z,15.30
2018-04-01T12:19:51.123Z,15.68
2018-04-01T12:21:53.807Z,15.00
2018-04-01T12:23:56.747Z,14.65
2018-04-01T12:25:59.423Z,14.63
2018-04-01T12:28:02.088Z,21.90
2018-04-01T12:30:04.765Z,15.50
2018-04-01T12:32:07.416Z,17.33
2018-04-01T12:34:10.075Z,15.07
2018-04-01T12:36:12.727Z,14.32
2018-04-01T12:38:15.415Z,15.82
2018-04-01T12:40:18.072Z,14.82
2018-04-01T12:42:20.741Z,55.50
2018-04-01T12:44:23.408Z,73.90
2018-04-01T12:46:26.060Z,20.98
2018-04-01T12:48:28.772Z,12.45
2018-04-01T12:50:31.530Z,12.35
2018-04-01T12:52:34.183Z,11.77
2018-04-01T12:54:36.839Z,12.05
2018-04-01T12:56:39.690Z,12.80
2018-04-01T12:58:42.353Z,10.52
2018-04-01T13:00:45.020Z,11.00
2018-04-01T13:02:47.778Z,9.55
2018-04-01T13:04:50.443Z,10.70
2018-04-01T13:06:53.106Z,10.90
2018-04-01T13:08:55.773Z,10.98
2018-04-01T13:10:58.449Z,11.25
2018-04-01T13:13:01.109Z,10.30
2018-04-01T13:15:03.814Z,10.27
2018-04-01T13:17:06.478Z,9.65
2018-04-01T13:19:09.146Z,9.77
2018-04-01T13:21:11.828Z,12.02
2018-04-01T13:23:14.479Z,10.48
2018-04-01T13:25:17.159Z,29.02
2018-04-01T13:27:19.835Z,20.67
2018-04-01T13:29:22.506Z,13.60
2018-04-01T13:31:25.178Z,8.70
2018-04-01T13:33:28.183Z,11.63
2018-04-01T13:35:30.863Z,9.03
2018-04-01T13:37:33.515Z,10.43
2018-04-01T13:39:36.258Z,9.80
2018-04-01T13:41:38.952Z,9.83
2018-04-01T13:43:41.636Z,9.93
2018-04-01T13:45:44.375Z,10.57
2018-04-01T13:47:47.043Z,9.77
2018-04-01T13:49:49.728Z,10.17
2018-04-01T13:51:52.600Z,9.03
2018-04-01T13:53:55.283Z,11.50
2018-04-01T13:55:57.979Z,9.77
2018-04-01T13:58:00.816Z,10.57
2018-04-01T14:00:03.885Z,10.63
2018-04-01T14:02:06.583Z,11.48
2018-04-01T14:04:09.261Z,11.27
2018-04-01T14:06:11.961Z,11.80
2018-04-01T14:08:14.667Z,12.13
2018-04-01T14:10:17.344Z,12.77
2018-04-01T14:12:20.044Z,10.88
2018-04-01T14:14:22.728Z,11.40
2018-04-01T14:16:25.532Z,10.90
2018-04-01T14:18:28.558Z,11.95
2018-04-01T14:20:31.450Z,10.95
2018-04-01T14:22:34.132Z,11.00
2018-04-01T14:24:36.849Z,16.67
2018-04-01T14:26:39.537Z,15.15
2018-04-01T14:28:42.261Z,24.12
2018-04-01T14:30:44.965Z,19.50
2018-04-01T14:32:47.655Z,13.80
2018-04-01T14:34:50.326Z,11.85
2018-04-01T14:36:53.044Z,13.38
2018-04-01T14:38:55.715Z,14.82
2018-04-01T14:40:58.391Z,11.63
2018-04-01T14:43:01.075Z,11.90
2018-04-01T14:45:03.864Z,12.45
2018-04-01T14:47:06.549Z,11.52
2018-04-01T14:49:09.215Z,11.75
2018-04-01T14:51:11.934Z,11.70
2018-04-01T14:53:14.613Z,19.20
2018-04-01T14:55:17.307Z,24.30
2018-04-01T14:57:20.004Z,10.75
2018-04-01T14:59:22.688Z,12.90
2018-04-01T15:01:25.356Z,10.23
2018-04-01T15:03:28.056Z,10.95
2018-04-01T15:05:30.779Z,10.20
2018-04-01T15:07:33.459Z,17.12
2018-04-01T15:09:36.159Z,9.45
2018-04-01T15:11:38.838Z,9.90
2018-04-01T15:13:41.506Z,9.88
2018-04-01T15:15:44.181Z,10.95
2018-04-01T15:17:46.882Z,10.15
2018-04-01T15:19:49.724Z,10.25
2018-04-01T15:21:52.407Z,10.88
2018-04-01T15:23:55.103Z,10.82
2018-04-01T15:25:57.783Z,10.48
2018-04-01T15:28:00.456Z,7.43
2018-04-01T15:30:03.165Z,9.07
2018-04-01T15:32:05.831Z,8.70
2018-04-01T15:34:08.520Z,9.45
2018-04-01T15:36:11.249Z,9.63
2018-04-01T15:38:13.927Z,8.70
2018-04-01T15:40:16.619Z,9.80
2018-04-01T15:42:19.332Z,9.45
2018-04-01T15:44:22.031Z,11.15
2018-04-01T15:46:24.710Z,9.57
2018-04-01T15:48:27.396Z,12.07
2018-04-01T15:50:30.062Z,11.73
2018-04-01T15:52:32.760Z,12.40
2018-04-01T15:54:35.426Z,12.15
2018-04-01T15:56:38.111Z,12.80
2018-04-01T15:58:40.786Z,12.90
2018-04-01T16:00:43.475Z,11.98
2018-04-01T16:02:46.142Z,10.95
2018-04-01T16:04:49.180Z,12.77
2018-04-01T16:06:51.855Z,13.45
2018-04-01T16:08:54.536Z,13.35
2018-04-01T16:10:57.235Z,10.88
2018-04-01T16:12:59.944Z,12.50
2018-04-01T16:15:02.630Z,11.88
2018-04-01T16:17:05.380Z,12.90
2018-04-01T16:19:08.626Z,19.62
2018-04-01T16:21:12.086Z,11.73
2018-04-01T16:23:14.755Z,11.23
2018-04-01T16:25:17.467Z,18.20
2018-04-01T16:27:20.159Z,13.65
2018-04-01T16:29:22.849Z,14.35
2018-04-01T16:31:25.523Z,10.73
2018-04-01T16:33:28.283Z,9.38
2018-04-01T16:35:30.957Z,12.25
2018-04-01T16:37:33.622Z,15.13
2018-04-01T16:39:36.416Z,10.00
2018-04-01T16:41:39.098Z,10.07
2018-04-01T16:43:41.808Z,25.12
2018-04-01T16:45:44.808Z,13.05
2018-04-01T16:47:47.514Z,13.00
2018-04-01T16:49:50.201Z,14.15
2018-04-01T16:51:52.886Z,12.35
2018-04-01T16:53:55.548Z,12.25
2018-04-01T16:55:58.227Z,22.25
2018-04-01T16:58:00.908Z,16.62
2018-04-01T17:00:03.606Z,12.90
2018-04-01T17:02:06.300Z,15.75
2018-04-01T17:04:08.991Z,15.80
2018-04-01T17:06:11.698Z,15.57
2018-04-01T17:08:14.402Z,13.15
2018-04-01T17:10:17.086Z,11.40
2018-04-01T17:12:19.796Z,16.48
2018-04-01T17:14:22.464Z,17.23
2018-04-01T17:16:25.143Z,26.15
2018-04-01T17:18:28.101Z,20.30
2018-04-01T17:20:30.790Z,13.70
2018-04-01T17:22:33.471Z,14.20
2018-04-01T17:24:36.287Z,13.40
2018-04-01T17:26:39.072Z,18.08
2018-04-01T17:28:41.770Z,14.63
2018-04-01T17:30:44.452Z,17.37
2018-04-01T17:32:47.171Z,14.90
2018-04-01T17:34:49.875Z,14.57
2018-04-01T17:36:52.547Z,17.08
2018-04-01T17:38:55.255Z,16.98
2018-04-01T17:40:57.919Z,18.25
2018-04-01T17:43:00.603Z,15.90
2018-04-01T17:45:03.323Z,14.45
2018-04-01T17:47:05.994Z,14.05
2018-04-01T17:49:08.713Z,19.48
2018-04-01T17:51:11.404Z,15.93
2018-04-01T17:53:14.120Z,14.87
2018-04-01T17:55:16.809Z,13.00
2018-04-01T17:57:19.584Z,15.05
2018-04-01T17:59:22.251Z,16.20
2018-04-01T18:01:24.931Z,19.37
2018-04-01T18:03:27.620Z,18.55
2018-04-01T18:05:30.316Z,19.50
2018-04-01T18:07:33.008Z,20.23
2018-04-01T18:09:35.700Z,19.80
2018-04-01T18:11:38.483Z,18.95
2018-04-01T18:13:41.259Z,16.62
2018-04-01T18:15:43.970Z,17.05
2018-04-01T18:17:46.808Z,23.87
2018-04-01T18:19:49.468Z,20.62
2018-04-01T18:21:52.190Z,21.98
2018-04-01T18:23:54.899Z,17.67
2018-04-01T18:25:57.607Z,18.67
2018-04-01T18:28:00.276Z,19.20
2018-04-01T18:30:02.964Z,20.12
2018-04-01T18:32:05.712Z,23.92
2018-04-01T18:34:08.399Z,17.70
2018-04-01T18:36:11.107Z,14.52
2018-04-01T18:38:13.791Z,16.40
2018-04-01T18:40:16.603Z,18.10
2018-04-01T18:42:19.316Z,17.87
2018-04-01T18:44:22.007Z,17.85
2018-04-01T18:46:24.692Z,15.45
2018-04-01T18:48:27.395Z,17.15
2018-04-01T18:50:30.095Z,20.00
2018-04-01T18:52:32.960Z,16.52
2018-04-01T18:54:35.645Z,16.17
2018-04-01T18:56:38.321Z,18.85
2018-04-01T18:58:41.183Z,16.58
2018-04-01T19:00:43.914Z,17.02
2018-04-01T19:02:49.092Z,13.57
2018-04-01T19:04:51.795Z,19.98
2018-04-01T19:06:54.477Z,18.08
2018-04-01T19:08:57.152Z,17.42
2018-04-01T19:10:59.899Z,20.08
2018-04-01T19:13:02.620Z,18.58
2018-04-01T19:15:05.304Z,20.80
2018-04-01T19:17:08.090Z,18.23
2018-04-01T19:19:10.911Z,22.98
2018-04-01T19:21:13.658Z,16.92
2018-04-01T19:23:16.431Z,16.98
2018-04-01T19:25:19.211Z,19.35
2018-04-01T19:27:21.975Z,13.40
2018-04-01T19:29:24.726Z,15.82
2018-04-01T19:31:27.477Z,18.55
2018-04-01T19:33:30.235Z,13.98
2018-04-01T19:35:33.030Z,15.93
2018-04-01T19:37:35.806Z,19.12
2018-04-01T19:39:38.747Z,18.52
2018-04-01T19:41:41.519Z,17.12
2018-04-01T19:43:46.117Z,46.47
2018-04-01T19:45:48.948Z,50.55
2018-04-01T19:47:51.708Z,21.02
2018-04-01T19:49:54.491Z,19.60
2018-04-01T19:51:57.406Z,24.30
2018-04-01T19:54:00.184Z,17.75
2018-04-01T19:56:02.965Z,19.02
2018-04-01T19:58:05.749Z,16.10
2018-04-01T20:00:08.651Z,17.77
2018-04-01T20:02:11.392Z,23.05
2018-04-01T20:04:15.101Z,15.80
2018-04-01T20:06:17.868Z,17.40
2018-04-01T20:08:20.604Z,16.62
2018-04-01T20:10:23.363Z,16.85
2018-04-01T20:12:27.243Z,18.62
2018-04-01T20:14:29.999Z,15.60
2018-04-01T20:16:32.766Z,15.75
2018-04-01T20:18:35.542Z,20.83
2018-04-01T20:20:38.319Z,20.73
2018-04-01T20:22:41.044Z,17.37
2018-04-01T20:24:43.802Z,17.00
2018-04-01T20:26:46.948Z,21.02
2018-04-01T20:28:49.680Z,15.52
2018-04-01T20:30:52.432Z,40.70
2018-04-01T20:32:55.183Z,34.03
2018-04-01T20:34:57.891Z,25.23
2018-04-01T20:37:00.680Z,17.95
2018-04-01T20:39:03.391Z,27.73
2018-04-01T20:41:06.155Z,30.40
2018-04-01T20:43:08.897Z,22.35
2018-04-01T20:45:11.628Z,19.55
2018-04-01T20:47:14.348Z,21.73
2018-04-01T20:49:17.143Z,18.67
2018-04-01T20:51:19.863Z,18.50
2018-04-01T20:53:22.580Z,23.95
2018-04-01T20:55:25.349Z,27.15
2018-04-01T20:57:28.348Z,21.05
2018-04-01T20:59:31.071Z,19.50
2018-04-01T21:01:33.799Z,19.60
2018-04-01T21:03:36.990Z,19.35
2018-04-01T21:05:39.714Z,25.83
2018-04-01T21:07:42.434Z,21.00
2018-04-01T21:09:45.172Z,18.20
2018-04-01T21:11:47.887Z,21.98
2018-04-01T21:13:50.612Z,26.90
2018-04-01T21:15:53.427Z,20.00
2018-04-01T21:17:56.644Z,19.23
2018-04-01T21:19:59.390Z,14.52
2018-04-01T21:22:02.215Z,18.30
2018-04-01T21:24:04.943Z,16.65
2018-04-01T21:26:07.975Z,19.58
2018-04-01T21:28:10.707Z,20.20
2018-04-01T21:30:13.416Z,19.23
2018-04-01T21:32:16.164Z,17.50
2018-04-01T21:34:18.888Z,16.62
2018-04-01T21:36:21.615Z,21.12
2018-04-01T21:38:24.571Z,18.65
2018-04-01T21:40:27.353Z,31.90
2018-04-01T21:42:30.110Z,15.82
2018-04-01T21:44:32.823Z,19.58
2018-04-01T21:46:35.549Z,20.17
2018-04-01T21:48:38.325Z,15.88
2018-04-01T21:50:41.061Z,16.65
2018-04-01T21:52:43.790Z,16.62
2018-04-01T21:54:46.564Z,16.98
2018-04-01T21:56:49.288Z,16.10
2018-04-01T21:58:52.028Z,19.83
2018-04-01T22:00:54.887Z,20.10
2018-04-01T22:02:57.599Z,16.35
2018-04-01T22:05:00.479Z,16.60
2018-04-01T22:07:03.262Z,19.52
2018-04-01T22:09:06.015Z,25.08
2018-04-01T22:11:08.723Z,25.35
2018-04-01T22:13:11.439Z,19.50
2018-04-01T22:15:14.156Z,18.67
2018-04-01T22:17:16.875Z,19.35
2018-04-01T22:19:19.784Z,17.02
2018-04-01T22:21:22.537Z,22.13
2018-04-01T22:23:25.483Z,19.65
2018-04-01T22:25:28.224Z,17.05
2018-04-01T22:27:30.940Z,18.02
2018-04-01T22:29:33.790Z,16.80
2018-04-01T22:31:36.526Z,19.58
2018-04-01T22:33:39.242Z,21.95
2018-04-01T22:35:41.951Z,16.25
2018-04-01T22:37:44.683Z,17.27
2018-04-01T22:39:47.394Z,20.45
2018-04-01T22:41:50.252Z,17.10
2018-04-01T22:43:52.963Z,20.08
2018-04-01T22:45:55.675Z,20.80
2018-04-01T22:47:58.398Z,20.50
2018-04-01T22:50:01.145Z,19.37
2018-04-01T22:52:03.858Z,18.48
2018-04-01T22:54:06.596Z,18.95
2018-04-01T22:56:09.507Z,22.75
2018-04-01T22:58:12.215Z,23.02
2018-04-01T23:00:15.245Z,22.02
2018-04-01T23:02:17.960Z,21.20
2018-04-01T23:04:20.781Z,23.73
2018-04-01T23:06:23.494Z,27.30
2018-04-01T23:08:26.217Z,23.08
2018-04-01T23:10:28.973Z,29.20
2018-04-01T23:12:31.686Z,22.77
2018-04-01T23:14:34.402Z,29.67
2018-04-01T23:16:37.129Z,20.58
2018-04-01T23:18:39.851Z,18.65
2018-04-01T23:20:42.566Z,21.25
2018-04-01T23:22:45.299Z,21.17
2018-04-01T23:24:48.027Z,23.15
2018-04-01T23:26:50.768Z,24.65
2018-04-01T23:28:53.488Z,23.38
2018-04-01T23:30:56.214Z,23.67
2018-04-01T23:32:58.968Z,23.48
2018-04-01T23:35:01.685Z,21.20
2018-04-01T23:37:04.411Z,20.27
2018-04-01T23:39:07.451Z,22.70
2018-04-01T23:41:10.229Z,25.00
2018-04-01T23:43:12.943Z,21.42
2018-04-01T23:45:15.794Z,27.30
2018-04-01T23:47:18.516Z,24.42
2018-04-01T23:49:21.223Z,23.73
2018-04-01T23:51:23.957Z,23.62
2018-04-01T23:53:26.680Z,23.92
2018-04-01T23:55:29.400Z,21.58
2018-04-01T23:57:32.139Z,23.87
2018-04-01T23:59:34.884Z,23.05
